sensor_id;sensor_type;location;lat;lon;timestamp;temperature;humidity
76956;DHT22;65894;53.206;-6.108;2022-12-18T00:03:59;21.22;51.31
76956;DHT22;65894;53.206;-6.108;2022-12-18T00:06:26;21.22;51.36
76956;DHT22;65894;53.206;-6.108;2022-12-18T00:08:53;21.21;51.31
76956;DHT22;65894;53.206;-6.108;2022-12-18T00:11:21;21.22;51.35
76956;DHT22;65894;53.206;-6.108;2022-12-18T00:13:48;21.19;51.33
76956;DHT22;65894;53.206;-6.108;2022-12-18T00:16:16;21.22;51.33
76956;DHT22;65894;53.206;-6.108;2022-12-18T00:18:45;21.19;51.34
76956;DHT22;65894;53.206;-6.108;2022-12-18T00:21:11;21.17;51.44
76956;DHT22;65894;53.206;-6.108;2022-12-18T00:23:38;21.21;51.33
76956;DHT22;65894;53.206;-6.108;2022-12-18T00:26:07;21.22;51.39
76956;DHT22;65894;53.206;-6.108;2022-12-18T00:28:33;21.21;51.43
76956;DHT22;65894;53.206;-6.108;2022-12-18T00:31:04;21.21;51.58
76956;DHT22;65894;53.206;-6.108;2022-12-18T00:33:29;21.24;51.67
76956;DHT22;65894;53.206;-6.108;2022-12-18T00:36:00;21.22;51.77
76956;DHT22;65894;53.206;-6.108;2022-12-18T00:38:27;21.24;51.71
76956;DHT22;65894;53.206;-6.108;2022-12-18T00:40:52;21.25;51.76
76956;DHT22;65894;53.206;-6.108;2022-12-18T00:43:18;21.27;51.80
76956;DHT22;65894;53.206;-6.108;2022-12-18T00:45:43;21.24;51.77
76956;DHT22;65894;53.206;-6.108;2022-12-18T00:48:09;21.25;51.75
76956;DHT22;65894;53.206;-6.108;2022-12-18T00:50:35;21.25;51.70
76956;DHT22;65894;53.206;-6.108;2022-12-18T00:53:00;21.28;51.73
76956;DHT22;65894;53.206;-6.108;2022-12-18T00:55:26;21.25;51.69
76956;DHT22;65894;53.206;-6.108;2022-12-18T00:57:52;21.24;51.75
76956;DHT22;65894;53.206;-6.108;2022-12-18T01:00:18;21.25;51.75
76956;DHT22;65894;53.206;-6.108;2022-12-18T01:02:43;21.25;51.67
76956;DHT22;65894;53.206;-6.108;2022-12-18T01:05:11;21.27;51.68
76956;DHT22;65894;53.206;-6.108;2022-12-18T01:07:37;21.24;51.75
76956;DHT22;65894;53.206;-6.108;2022-12-18T01:10:04;21.22;51.73
76956;DHT22;65894;53.206;-6.108;2022-12-18T01:12:30;21.25;51.67
76956;DHT22;65894;53.206;-6.108;2022-12-18T01:14:56;21.27;51.71
76956;DHT22;65894;53.206;-6.108;2022-12-18T01:17:22;21.22;51.74
76956;DHT22;65894;53.206;-6.108;2022-12-18T01:19:47;21.24;51.68
76956;DHT22;65894;53.206;-6.108;2022-12-18T01:22:13;21.28;51.63
76956;DHT22;65894;53.206;-6.108;2022-12-18T01:24:38;21.25;51.62
76956;DHT22;65894;53.206;-6.108;2022-12-18T01:27:04;21.25;51.65
76956;DHT22;65894;53.206;-6.108;2022-12-18T01:29:29;21.27;51.66
76956;DHT22;65894;53.206;-6.108;2022-12-18T01:31:55;21.25;51.63
76956;DHT22;65894;53.206;-6.108;2022-12-18T01:34:22;21.25;51.71
76956;DHT22;65894;53.206;-6.108;2022-12-18T01:36:47;21.25;51.70
76956;DHT22;65894;53.206;-6.108;2022-12-18T01:39:14;21.27;51.71
76956;DHT22;65894;53.206;-6.108;2022-12-18T01:41:41;21.24;51.66
76956;DHT22;65894;53.206;-6.108;2022-12-18T01:50:03;21.25;51.59
76956;DHT22;65894;53.206;-6.108;2022-12-18T01:52:31;21.28;51.64
76956;DHT22;65894;53.206;-6.108;2022-12-18T01:54:59;21.25;51.65
76956;DHT22;65894;53.206;-6.108;2022-12-18T01:57:26;21.27;51.62
76956;DHT22;65894;53.206;-6.108;2022-12-18T01:59:54;21.28;51.70
76956;DHT22;65894;53.206;-6.108;2022-12-18T02:02:21;21.25;51.64
76956;DHT22;65894;53.206;-6.108;2022-12-18T02:04:47;21.27;51.70
76956;DHT22;65894;53.206;-6.108;2022-12-18T02:07:25;21.28;51.69
76956;DHT22;65894;53.206;-6.108;2022-12-18T02:10:15;21.27;51.64
76956;DHT22;65894;53.206;-6.108;2022-12-18T02:12:58;21.29;51.62
76956;DHT22;65894;53.206;-6.108;2022-12-18T02:15:32;21.31;51.60
76956;DHT22;65894;53.206;-6.108;2022-12-18T02:18:08;21.27;51.63
76956;DHT22;65894;53.206;-6.108;2022-12-18T02:20:52;21.31;51.65
76956;DHT22;65894;53.206;-6.108;2022-12-18T02:23:52;21.28;51.66
76956;DHT22;65894;53.206;-6.108;2022-12-18T02:26:29;21.28;51.64
76956;DHT22;65894;53.206;-6.108;2022-12-18T02:31:36;21.27;51.67
76956;DHT22;65894;53.206;-6.108;2022-12-18T02:34:05;21.27;51.67
76956;DHT22;65894;53.206;-6.108;2022-12-18T02:36:38;21.29;51.62
76956;DHT22;65894;53.206;-6.108;2022-12-18T02:39:07;21.25;51.66
76956;DHT22;65894;53.206;-6.108;2022-12-18T02:41:35;21.29;51.66
76956;DHT22;65894;53.206;-6.108;2022-12-18T02:44:08;21.31;51.63
76956;DHT22;65894;53.206;-6.108;2022-12-18T02:46:54;21.29;51.64
76956;DHT22;65894;53.206;-6.108;2022-12-18T02:49:44;21.29;51.63
76956;DHT22;65894;53.206;-6.108;2022-12-18T02:52:24;21.28;51.66
76956;DHT22;65894;53.206;-6.108;2022-12-18T02:57:46;21.29;51.64
76956;DHT22;65894;53.206;-6.108;2022-12-18T03:00:18;21.29;51.67
76956;DHT22;65894;53.206;-6.108;2022-12-18T03:05:25;21.31;51.63
76956;DHT22;65894;53.206;-6.108;2022-12-18T03:07:58;21.29;51.66
76956;DHT22;65894;53.206;-6.108;2022-12-18T03:10:30;21.29;51.67
76956;DHT22;65894;53.206;-6.108;2022-12-18T03:13:04;21.31;51.68
76956;DHT22;65894;53.206;-6.108;2022-12-18T03:15:43;21.31;51.57
76956;DHT22;65894;53.206;-6.108;2022-12-18T03:18:40;21.31;51.63
76956;DHT22;65894;53.206;-6.108;2022-12-18T03:21:05;21.28;51.68
76956;DHT22;65894;53.206;-6.108;2022-12-18T03:23:40;21.29;51.65
76956;DHT22;65894;53.206;-6.108;2022-12-18T03:26:14;21.27;51.69
76956;DHT22;65894;53.206;-6.108;2022-12-18T03:28:48;21.29;51.62
76956;DHT22;65894;53.206;-6.108;2022-12-18T03:31:15;21.25;51.66
76956;DHT22;65894;53.206;-6.108;2022-12-18T03:33:51;21.29;51.58
76956;DHT22;65894;53.206;-6.108;2022-12-18T03:36:17;21.31;51.59
76956;DHT22;65894;53.206;-6.108;2022-12-18T03:38:43;21.31;51.56
76956;DHT22;65894;53.206;-6.108;2022-12-18T03:42:29;21.29;51.62
76956;DHT22;65894;53.206;-6.108;2022-12-18T03:44:44;21.29;51.55
76956;DHT22;65894;53.206;-6.108;2022-12-18T03:47:44;21.34;51.56
76956;DHT22;65894;53.206;-6.108;2022-12-18T03:50:56;21.34;51.58
76956;DHT22;65894;53.206;-6.108;2022-12-18T03:55:34;21.29;51.63
76956;DHT22;65894;53.206;-6.108;2022-12-18T03:58:04;21.32;51.61
76956;DHT22;65894;53.206;-6.108;2022-12-18T04:00:42;21.29;51.61
76956;DHT22;65894;53.206;-6.108;2022-12-18T04:03:10;21.32;51.59
76956;DHT22;65894;53.206;-6.108;2022-12-18T04:05:44;21.31;51.56
76956;DHT22;65894;53.206;-6.108;2022-12-18T04:08:11;21.31;51.61
76956;DHT22;65894;53.206;-6.108;2022-12-18T04:10:41;21.32;51.57
76956;DHT22;65894;53.206;-6.108;2022-12-18T04:13:07;21.29;51.58
76956;DHT22;65894;53.206;-6.108;2022-12-18T04:15:35;21.31;51.63
76956;DHT22;65894;53.206;-6.108;2022-12-18T04:18:03;21.32;51.60
76956;DHT22;65894;53.206;-6.108;2022-12-18T04:20:36;21.32;51.60
76956;DHT22;65894;53.206;-6.108;2022-12-18T04:23:02;21.32;51.63
76956;DHT22;65894;53.206;-6.108;2022-12-18T04:25:28;21.31;51.64
76956;DHT22;65894;53.206;-6.108;2022-12-18T04:28:04;21.29;51.57
76956;DHT22;65894;53.206;-6.108;2022-12-18T04:30:29;21.29;51.66
76956;DHT22;65894;53.206;-6.108;2022-12-18T04:32:55;21.29;51.64
76956;DHT22;65894;53.206;-6.108;2022-12-18T04:35:21;21.28;51.65
76956;DHT22;65894;53.206;-6.108;2022-12-18T04:37:46;21.28;51.64
76956;DHT22;65894;53.206;-6.108;2022-12-18T04:40:13;21.31;51.62
76956;DHT22;65894;53.206;-6.108;2022-12-18T04:42:42;21.34;51.61
76956;DHT22;65894;53.206;-6.108;2022-12-18T04:45:07;21.31;51.62
76956;DHT22;65894;53.206;-6.108;2022-12-18T04:47:33;21.32;51.59
76956;DHT22;65894;53.206;-6.108;2022-12-18T04:49:59;21.29;51.62
76956;DHT22;65894;53.206;-6.108;2022-12-18T04:52:24;21.31;51.62
76956;DHT22;65894;53.206;-6.108;2022-12-18T04:54:50;21.31;51.51
76956;DHT22;65894;53.206;-6.108;2022-12-18T04:57:15;21.31;51.59
76956;DHT22;65894;53.206;-6.108;2022-12-18T04:59:43;21.32;51.50
76956;DHT22;65894;53.206;-6.108;2022-12-18T05:02:09;21.34;51.57
76956;DHT22;65894;53.206;-6.108;2022-12-18T05:04:34;21.31;51.59
76956;DHT22;65894;53.206;-6.108;2022-12-18T05:07:00;21.32;51.60
76956;DHT22;65894;53.206;-6.108;2022-12-18T05:09:25;21.31;51.63
76956;DHT22;65894;53.206;-6.108;2022-12-18T05:11:51;21.28;51.66
76956;DHT22;65894;53.206;-6.108;2022-12-18T05:14:16;21.29;51.71
76956;DHT22;65894;53.206;-6.108;2022-12-18T05:16:42;21.32;51.63
76956;DHT22;65894;53.206;-6.108;2022-12-18T05:19:07;21.29;51.65
76956;DHT22;65894;53.206;-6.108;2022-12-18T05:21:33;21.31;51.62
76956;DHT22;65894;53.206;-6.108;2022-12-18T05:23:58;21.32;51.55
76956;DHT22;65894;53.206;-6.108;2022-12-18T05:26:24;21.29;51.63
76956;DHT22;65894;53.206;-6.108;2022-12-18T05:28:50;21.32;51.58
76956;DHT22;65894;53.206;-6.108;2022-12-18T05:31:15;21.34;51.60
76956;DHT22;65894;53.206;-6.108;2022-12-18T05:33:41;21.34;51.59
76956;DHT22;65894;53.206;-6.108;2022-12-18T05:36:08;21.31;51.63
76956;DHT22;65894;53.206;-6.108;2022-12-18T05:38:36;21.29;51.69
76956;DHT22;65894;53.206;-6.108;2022-12-18T05:41:02;21.29;51.63
76956;DHT22;65894;53.206;-6.108;2022-12-18T05:43:28;21.29;51.62
76956;DHT22;65894;53.206;-6.108;2022-12-18T05:45:54;21.28;51.61
76956;DHT22;65894;53.206;-6.108;2022-12-18T05:48:21;21.31;51.60
76956;DHT22;65894;53.206;-6.108;2022-12-18T05:50:47;21.31;51.60
76956;DHT22;65894;53.206;-6.108;2022-12-18T05:53:15;21.31;51.60
76956;DHT22;65894;53.206;-6.108;2022-12-18T05:55:41;21.32;51.50
76956;DHT22;65894;53.206;-6.108;2022-12-18T05:58:09;21.31;51.61
76956;DHT22;65894;53.206;-6.108;2022-12-18T06:00:37;21.31;51.55
76956;DHT22;65894;53.206;-6.108;2022-12-18T06:03:05;21.29;51.56
76956;DHT22;65894;53.206;-6.108;2022-12-18T06:05:35;21.28;51.65
76956;DHT22;65894;53.206;-6.108;2022-12-18T06:08:02;21.31;51.50
76956;DHT22;65894;53.206;-6.108;2022-12-18T06:10:28;21.29;51.60
76956;DHT22;65894;53.206;-6.108;2022-12-18T06:12:53;21.27;51.60
76956;DHT22;65894;53.206;-6.108;2022-12-18T06:15:19;21.27;51.68
76956;DHT22;65894;53.206;-6.108;2022-12-18T06:17:44;21.28;51.62
76956;DHT22;65894;53.206;-6.108;2022-12-18T06:20:10;21.27;51.59
76956;DHT22;65894;53.206;-6.108;2022-12-18T06:22:35;21.28;51.65
76956;DHT22;65894;53.206;-6.108;2022-12-18T06:25:01;21.29;51.61
76956;DHT22;65894;53.206;-6.108;2022-12-18T06:27:26;21.29;51.53
76956;DHT22;65894;53.206;-6.108;2022-12-18T06:29:52;21.28;51.60
76956;DHT22;65894;53.206;-6.108;2022-12-18T06:32:17;21.28;51.60
76956;DHT22;65894;53.206;-6.108;2022-12-18T06:34:43;21.27;51.65
76956;DHT22;65894;53.206;-6.108;2022-12-18T06:37:08;21.29;51.58
76956;DHT22;65894;53.206;-6.108;2022-12-18T06:39:34;21.29;51.60
76956;DHT22;65894;53.206;-6.108;2022-12-18T06:41:59;21.29;51.53
76956;DHT22;65894;53.206;-6.108;2022-12-18T06:44:25;21.31;51.56
76956;DHT22;65894;53.206;-6.108;2022-12-18T06:46:50;21.31;51.52
76956;DHT22;65894;53.206;-6.108;2022-12-18T06:49:16;21.28;51.54
76956;DHT22;65894;53.206;-6.108;2022-12-18T06:51:41;21.31;51.55
76956;DHT22;65894;53.206;-6.108;2022-12-18T06:54:07;21.29;51.57
76956;DHT22;65894;53.206;-6.108;2022-12-18T06:56:33;21.29;51.57
76956;DHT22;65894;53.206;-6.108;2022-12-18T06:58:59;21.29;51.52
76956;DHT22;65894;53.206;-6.108;2022-12-18T07:01:24;21.29;51.53
76956;DHT22;65894;53.206;-6.108;2022-12-18T07:03:54;21.28;51.54
76956;DHT22;65894;53.206;-6.108;2022-12-18T07:06:22;21.29;51.51
76956;DHT22;65894;53.206;-6.108;2022-12-18T07:08:49;21.28;51.52
76956;DHT22;65894;53.206;-6.108;2022-12-18T07:11:16;21.29;51.48
76956;DHT22;65894;53.206;-6.108;2022-12-18T07:13:42;21.28;51.53
76956;DHT22;65894;53.206;-6.108;2022-12-18T07:16:10;21.25;51.54
76956;DHT22;65894;53.206;-6.108;2022-12-18T07:18:36;21.29;51.55
76956;DHT22;65894;53.206;-6.108;2022-12-18T07:21:06;21.31;51.47
76956;DHT22;65894;53.206;-6.108;2022-12-18T07:23:33;21.28;51.56
76956;DHT22;65894;53.206;-6.108;2022-12-18T07:26:07;21.29;51.50
76956;DHT22;65894;53.206;-6.108;2022-12-18T07:28:34;21.27;51.52
76956;DHT22;65894;53.206;-6.108;2022-12-18T07:31:07;21.28;51.52
76956;DHT22;65894;53.206;-6.108;2022-12-18T07:33:34;21.27;51.54
76956;DHT22;65894;53.206;-6.108;2022-12-18T07:36:03;21.28;51.47
76956;DHT22;65894;53.206;-6.108;2022-12-18T07:38:30;21.31;51.52
76956;DHT22;65894;53.206;-6.108;2022-12-18T07:41:25;21.34;51.42
76956;DHT22;65894;53.206;-6.108;2022-12-18T07:43:51;21.27;51.48
76956;DHT22;65894;53.206;-6.108;2022-12-18T07:46:17;21.28;51.45
76956;DHT22;65894;53.206;-6.108;2022-12-18T07:48:43;21.28;51.45
76956;DHT22;65894;53.206;-6.108;2022-12-18T07:51:12;21.27;51.45
76956;DHT22;65894;53.206;-6.108;2022-12-18T07:53:38;21.29;51.33
76956;DHT22;65894;53.206;-6.108;2022-12-18T07:56:06;21.27;51.33
76956;DHT22;65894;53.206;-6.108;2022-12-18T07:58:32;21.25;51.37
76956;DHT22;65894;53.206;-6.108;2022-12-18T08:01:18;21.25;51.25
76956;DHT22;65894;53.206;-6.108;2022-12-18T08:03:43;21.25;51.32
76956;DHT22;65894;53.206;-6.108;2022-12-18T08:06:09;21.24;51.34
76956;DHT22;65894;53.206;-6.108;2022-12-18T08:08:35;21.25;51.34
76956;DHT22;65894;53.206;-6.108;2022-12-18T08:11:01;21.24;51.32
76956;DHT22;65894;53.206;-6.108;2022-12-18T08:13:27;21.27;51.33
76956;DHT22;65894;53.206;-6.108;2022-12-18T08:18:23;21.29;51.28
76956;DHT22;65894;53.206;-6.108;2022-12-18T08:20:48;21.32;51.33
76956;DHT22;65894;53.206;-6.108;2022-12-18T08:23:14;21.31;51.24
76956;DHT22;65894;53.206;-6.108;2022-12-18T08:25:39;21.27;51.28
76956;DHT22;65894;53.206;-6.108;2022-12-18T08:28:05;21.29;51.36
76956;DHT22;65894;53.206;-6.108;2022-12-18T08:30:30;21.31;51.36
76956;DHT22;65894;53.206;-6.108;2022-12-18T08:32:56;21.29;51.34
76956;DHT22;65894;53.206;-6.108;2022-12-18T08:35:21;21.32;51.28
76956;DHT22;65894;53.206;-6.108;2022-12-18T08:37:47;21.27;51.33
76956;DHT22;65894;53.206;-6.108;2022-12-18T08:40:12;21.29;51.32
76956;DHT22;65894;53.206;-6.108;2022-12-18T08:42:38;21.29;51.33
76956;DHT22;65894;53.206;-6.108;2022-12-18T08:45:22;21.31;51.35
76956;DHT22;65894;53.206;-6.108;2022-12-18T08:47:48;21.31;51.33
76956;DHT22;65894;53.206;-6.108;2022-12-18T08:50:14;21.28;51.33
76956;DHT22;65894;53.206;-6.108;2022-12-18T08:52:40;21.29;51.35
76956;DHT22;65894;53.206;-6.108;2022-12-18T08:55:06;21.29;51.35
76956;DHT22;65894;53.206;-6.108;2022-12-18T08:57:31;21.28;51.40
76956;DHT22;65894;53.206;-6.108;2022-12-18T08:59:57;21.28;51.36
76956;DHT22;65894;53.206;-6.108;2022-12-18T09:02:22;21.29;51.40
76956;DHT22;65894;53.206;-6.108;2022-12-18T09:04:48;21.29;51.43
76956;DHT22;65894;53.206;-6.108;2022-12-18T09:07:13;21.32;51.41
76956;DHT22;65894;53.206;-6.108;2022-12-18T09:09:39;21.29;51.40
76956;DHT22;65894;53.206;-6.108;2022-12-18T09:12:05;21.29;51.41
76956;DHT22;65894;53.206;-6.108;2022-12-18T09:14:30;21.32;51.40
76956;DHT22;65894;53.206;-6.108;2022-12-18T09:16:56;21.31;51.38
76956;DHT22;65894;53.206;-6.108;2022-12-18T09:19:21;21.32;51.37
76956;DHT22;65894;53.206;-6.108;2022-12-18T09:21:46;21.34;51.38
76956;DHT22;65894;53.206;-6.108;2022-12-18T09:24:13;21.35;51.39
76956;DHT22;65894;53.206;-6.108;2022-12-18T09:26:39;21.31;51.44
76956;DHT22;65894;53.206;-6.108;2022-12-18T09:29:04;21.31;51.47
76956;DHT22;65894;53.206;-6.108;2022-12-18T09:31:33;21.34;51.42
76956;DHT22;65894;53.206;-6.108;2022-12-18T09:33:58;21.32;51.33
76956;DHT22;65894;53.206;-6.108;2022-12-18T09:36:24;21.32;51.39
76956;DHT22;65894;53.206;-6.108;2022-12-18T09:38:49;21.29;51.50
76956;DHT22;65894;53.206;-6.108;2022-12-18T09:43:57;21.34;51.39
76956;DHT22;65894;53.206;-6.108;2022-12-18T09:46:28;21.34;51.41
76956;DHT22;65894;53.206;-6.108;2022-12-18T09:48:59;21.32;51.41
76956;DHT22;65894;53.206;-6.108;2022-12-18T09:51:29;21.31;51.50
76956;DHT22;65894;53.206;-6.108;2022-12-18T09:53:59;21.34;51.44
76956;DHT22;65894;53.206;-6.108;2022-12-18T09:56:28;21.32;51.42
76956;DHT22;65894;53.206;-6.108;2022-12-18T09:59:00;21.32;51.47
76956;DHT22;65894;53.206;-6.108;2022-12-18T10:01:27;21.29;51.46
76956;DHT22;65894;53.206;-6.108;2022-12-18T10:03:53;21.34;51.48
76956;DHT22;65894;53.206;-6.108;2022-12-18T10:06:32;21.31;51.50
76956;DHT22;65894;53.206;-6.108;2022-12-18T10:09:15;21.31;51.51
76956;DHT22;65894;53.206;-6.108;2022-12-18T10:14:49;21.31;51.50
76956;DHT22;65894;53.206;-6.108;2022-12-18T10:17:45;21.32;51.46
76956;DHT22;65894;53.206;-6.108;2022-12-18T10:26:22;21.29;51.55
76956;DHT22;65894;53.206;-6.108;2022-12-18T10:28:48;21.31;51.50
76956;DHT22;65894;53.206;-6.108;2022-12-18T10:31:20;21.36;51.44
76956;DHT22;65894;53.206;-6.108;2022-12-18T10:33:45;21.34;51.56
76956;DHT22;65894;53.206;-6.108;2022-12-18T10:36:11;21.32;51.46
76956;DHT22;65894;53.206;-6.108;2022-12-18T10:38:37;21.32;51.53
76956;DHT22;65894;53.206;-6.108;2022-12-18T10:41:06;21.32;51.51
76956;DHT22;65894;53.206;-6.108;2022-12-18T10:43:39;21.32;51.58
76956;DHT22;65894;53.206;-6.108;2022-12-18T10:51:30;21.34;51.67
76956;DHT22;65894;53.206;-6.108;2022-12-18T10:54:14;21.34;51.75
76956;DHT22;65894;53.206;-6.108;2022-12-18T10:56:40;21.34;51.79
76956;DHT22;65894;53.206;-6.108;2022-12-18T10:59:08;21.32;51.76
76956;DHT22;65894;53.206;-6.108;2022-12-18T11:04:24;21.34;51.67
76956;DHT22;65894;53.206;-6.108;2022-12-18T11:09:45;21.32;51.82
76956;DHT22;65894;53.206;-6.108;2022-12-18T11:12:20;21.34;51.84
76956;DHT22;65894;53.206;-6.108;2022-12-18T11:14:49;21.35;51.81
76956;DHT22;65894;53.206;-6.108;2022-12-18T11:17:21;21.36;51.74
76956;DHT22;65894;53.206;-6.108;2022-12-18T11:19:58;21.34;51.87
76956;DHT22;65894;53.206;-6.108;2022-12-18T11:22:33;21.32;51.83
76956;DHT22;65894;53.206;-6.108;2022-12-18T11:25:19;21.35;51.82
76956;DHT22;65894;53.206;-6.108;2022-12-18T11:27:58;21.36;51.79
76956;DHT22;65894;53.206;-6.108;2022-12-18T11:30:31;21.34;51.89
76956;DHT22;65894;53.206;-6.108;2022-12-18T11:33:16;21.32;51.93
76956;DHT22;65894;53.206;-6.108;2022-12-18T11:40:47;21.35;51.94
76956;DHT22;65894;53.206;-6.108;2022-12-18T11:43:16;21.35;51.96
76956;DHT22;65894;53.206;-6.108;2022-12-18T11:45:51;21.34;51.96
76956;DHT22;65894;53.206;-6.108;2022-12-18T11:48:25;21.34;51.99
76956;DHT22;65894;53.206;-6.108;2022-12-18T11:50:54;21.35;51.93
76956;DHT22;65894;53.206;-6.108;2022-12-18T11:53:20;21.35;51.96
76956;DHT22;65894;53.206;-6.108;2022-12-18T11:56:08;21.35;52.01
76956;DHT22;65894;53.206;-6.108;2022-12-18T11:58:54;21.34;52.05
76956;DHT22;65894;53.206;-6.108;2022-12-18T12:09:43;21.38;52.01
76956;DHT22;65894;53.206;-6.108;2022-12-18T12:14:52;21.32;52.10
76956;DHT22;65894;53.206;-6.108;2022-12-18T12:17:39;21.35;52.11
76956;DHT22;65894;53.206;-6.108;2022-12-18T12:22:50;21.34;52.21
76956;DHT22;65894;53.206;-6.108;2022-12-18T12:25:39;21.34;52.30
76956;DHT22;65894;53.206;-6.108;2022-12-18T12:36:20;21.32;52.36
76956;DHT22;65894;53.206;-6.108;2022-12-18T12:38:53;21.35;52.36
76956;DHT22;65894;53.206;-6.108;2022-12-18T12:41:29;21.34;52.43
76956;DHT22;65894;53.206;-6.108;2022-12-18T12:44:39;21.36;52.43
76956;DHT22;65894;53.206;-6.108;2022-12-18T12:47:20;21.34;52.46
76956;DHT22;65894;53.206;-6.108;2022-12-18T12:49:47;21.31;52.52
76956;DHT22;65894;53.206;-6.108;2022-12-18T12:54:54;21.31;52.49
76956;DHT22;65894;53.206;-6.108;2022-12-18T12:57:24;21.32;52.40
76956;DHT22;65894;53.206;-6.108;2022-12-18T13:02:35;21.32;52.48
76956;DHT22;65894;53.206;-6.108;2022-12-18T13:05:16;21.32;52.48
76956;DHT22;65894;53.206;-6.108;2022-12-18T13:07:56;21.31;52.50
76956;DHT22;65894;53.206;-6.108;2022-12-18T13:10:44;21.34;52.44
76956;DHT22;65894;53.206;-6.108;2022-12-18T13:15:48;21.31;52.42
76956;DHT22;65894;53.206;-6.108;2022-12-18T13:18:21;21.31;52.46
76956;DHT22;65894;53.206;-6.108;2022-12-18T13:21:03;21.31;52.44
76956;DHT22;65894;53.206;-6.108;2022-12-18T13:23:33;21.32;52.41
76956;DHT22;65894;53.206;-6.108;2022-12-18T13:34:17;21.28;52.44
76956;DHT22;65894;53.206;-6.108;2022-12-18T13:36:42;21.28;52.47
76956;DHT22;65894;53.206;-6.108;2022-12-18T13:41:44;21.28;52.46
76956;DHT22;65894;53.206;-6.108;2022-12-18T13:46:50;21.28;52.49
76956;DHT22;65894;53.206;-6.108;2022-12-18T13:49:39;21.31;52.54
76956;DHT22;65894;53.206;-6.108;2022-12-18T13:52:28;21.31;52.56
76956;DHT22;65894;53.206;-6.108;2022-12-18T13:54:56;21.35;52.51
76956;DHT22;65894;53.206;-6.108;2022-12-18T13:57:34;21.31;52.59
76956;DHT22;65894;53.206;-6.108;2022-12-18T14:02:47;21.31;52.78
76956;DHT22;65894;53.206;-6.108;2022-12-18T14:05:34;21.28;52.83
76956;DHT22;65894;53.206;-6.108;2022-12-18T14:08:06;21.29;52.75
76956;DHT22;65894;53.206;-6.108;2022-12-18T14:10:34;21.28;52.79
76956;DHT22;65894;53.206;-6.108;2022-12-18T14:13:06;21.28;52.75
76956;DHT22;65894;53.206;-6.108;2022-12-18T14:15:50;21.25;52.81
76956;DHT22;65894;53.206;-6.108;2022-12-18T14:20:51;21.25;52.74
76956;DHT22;65894;53.206;-6.108;2022-12-18T14:26:01;21.21;52.77
76956;DHT22;65894;53.206;-6.108;2022-12-18T14:28:27;21.24;52.81
76956;DHT22;65894;53.206;-6.108;2022-12-18T14:30:53;21.22;52.81
76956;DHT22;65894;53.206;-6.108;2022-12-18T14:33:24;21.21;52.86
76956;DHT22;65894;53.206;-6.108;2022-12-18T14:36:04;21.22;52.89
76956;DHT22;65894;53.206;-6.108;2022-12-18T14:38:38;21.21;52.86
76956;DHT22;65894;53.206;-6.108;2022-12-18T14:41:06;21.21;52.92
76956;DHT22;65894;53.206;-6.108;2022-12-18T14:43:36;21.21;52.83
76956;DHT22;65894;53.206;-6.108;2022-12-18T14:46:03;21.21;52.85
76956;DHT22;65894;53.206;-6.108;2022-12-18T14:48:40;21.18;52.83
76956;DHT22;65894;53.206;-6.108;2022-12-18T14:53:41;21.18;52.80
76956;DHT22;65894;53.206;-6.108;2022-12-18T14:56:15;21.17;52.77
76956;DHT22;65894;53.206;-6.108;2022-12-18T14:58:49;21.17;52.71
76956;DHT22;65894;53.206;-6.108;2022-12-18T15:01:24;21.18;52.72
76956;DHT22;65894;53.206;-6.108;2022-12-18T15:03:51;21.17;52.75
76956;DHT22;65894;53.206;-6.108;2022-12-18T15:06:34;21.17;52.74
76956;DHT22;65894;53.206;-6.108;2022-12-18T15:09:06;21.15;52.76
76956;DHT22;65894;53.206;-6.108;2022-12-18T15:11:46;21.15;52.73
76956;DHT22;65894;53.206;-6.108;2022-12-18T15:17:06;21.14;52.75
76956;DHT22;65894;53.206;-6.108;2022-12-18T15:19:41;21.12;52.80
76956;DHT22;65894;53.206;-6.108;2022-12-18T15:24:47;21.12;52.76
76956;DHT22;65894;53.206;-6.108;2022-12-18T15:32:35;21.11;52.84
76956;DHT22;65894;53.206;-6.108;2022-12-18T15:35:14;21.09;52.86
76956;DHT22;65894;53.206;-6.108;2022-12-18T15:37:40;21.12;52.86
76956;DHT22;65894;53.206;-6.108;2022-12-18T15:40:07;21.09;52.90
76956;DHT22;65894;53.206;-6.108;2022-12-18T15:42:33;21.08;52.90
76956;DHT22;65894;53.206;-6.108;2022-12-18T15:45:17;21.12;52.89
76956;DHT22;65894;53.206;-6.108;2022-12-18T15:47:43;21.09;52.91
76956;DHT22;65894;53.206;-6.108;2022-12-18T15:50:09;21.11;52.90
76956;DHT22;65894;53.206;-6.108;2022-12-18T15:52:43;21.09;52.89
76956;DHT22;65894;53.206;-6.108;2022-12-18T15:55:14;21.09;52.87
76956;DHT22;65894;53.206;-6.108;2022-12-18T15:57:59;21.08;52.96
76956;DHT22;65894;53.206;-6.108;2022-12-18T16:00:24;21.11;52.94
76956;DHT22;65894;53.206;-6.108;2022-12-18T16:02:50;21.12;52.91
76956;DHT22;65894;53.206;-6.108;2022-12-18T16:05:18;21.09;52.98
76956;DHT22;65894;53.206;-6.108;2022-12-18T16:07:44;21.11;52.98
76956;DHT22;65894;53.206;-6.108;2022-12-18T16:10:10;21.08;53.07
76956;DHT22;65894;53.206;-6.108;2022-12-18T16:12:36;21.08;53.13
76956;DHT22;65894;53.206;-6.108;2022-12-18T16:15:04;21.07;53.16
76956;DHT22;65894;53.206;-6.108;2022-12-18T16:17:30;21.08;53.08
76956;DHT22;65894;53.206;-6.108;2022-12-18T16:19:56;21.07;53.12
76956;DHT22;65894;53.206;-6.108;2022-12-18T16:22:27;21.08;53.13
76956;DHT22;65894;53.206;-6.108;2022-12-18T16:24:54;21.08;53.19
76956;DHT22;65894;53.206;-6.108;2022-12-18T16:27:20;21.04;53.20
76956;DHT22;65894;53.206;-6.108;2022-12-18T16:29:46;21.02;53.23
76956;DHT22;65894;53.206;-6.108;2022-12-18T16:32:14;21.05;53.20
76956;DHT22;65894;53.206;-6.108;2022-12-18T16:34:40;21.07;53.16
76956;DHT22;65894;53.206;-6.108;2022-12-18T16:37:08;21.04;53.19
76956;DHT22;65894;53.206;-6.108;2022-12-18T16:39:35;21.01;53.20
76956;DHT22;65894;53.206;-6.108;2022-12-18T16:42:03;21.05;53.21
76956;DHT22;65894;53.206;-6.108;2022-12-18T16:44:29;21.05;53.14
76956;DHT22;65894;53.206;-6.108;2022-12-18T16:46:55;21.02;53.23
76956;DHT22;65894;53.206;-6.108;2022-12-18T16:49:27;21.02;53.27
76956;DHT22;65894;53.206;-6.108;2022-12-18T16:51:53;21.01;53.28
76956;DHT22;65894;53.206;-6.108;2022-12-18T16:54:19;21.02;53.21
76956;DHT22;65894;53.206;-6.108;2022-12-18T16:56:44;21.02;53.25
76956;DHT22;65894;53.206;-6.108;2022-12-18T16:59:12;21.04;53.25
76956;DHT22;65894;53.206;-6.108;2022-12-18T17:01:38;20.99;53.26
76956;DHT22;65894;53.206;-6.108;2022-12-18T17:04:05;21.04;53.25
76956;DHT22;65894;53.206;-6.108;2022-12-18T17:06:33;21.01;53.28
76956;DHT22;65894;53.206;-6.108;2022-12-18T17:09:02;21.04;53.38
76956;DHT22;65894;53.206;-6.108;2022-12-18T17:11:30;21.02;53.43
76956;DHT22;65894;53.206;-6.108;2022-12-18T17:13:56;21.02;53.34
76956;DHT22;65894;53.206;-6.108;2022-12-18T17:16:22;21.02;53.35
76956;DHT22;65894;53.206;-6.108;2022-12-18T17:18:48;21.04;53.37
76956;DHT22;65894;53.206;-6.108;2022-12-18T17:21:14;20.99;53.37
76956;DHT22;65894;53.206;-6.108;2022-12-18T17:23:41;20.99;53.37
76956;DHT22;65894;53.206;-6.108;2022-12-18T17:26:08;21.01;53.28